sensor_id;sensor_type;location;lat;lon;timestamp;temperature;humidity
17092;DHT22;8661;45.700;4.880;2022-09-03T00:02:32;18.60;99.90
17092;DHT22;8661;45.700;4.880;2022-09-03T00:05:05;18.60;99.90
17092;DHT22;8661;45.700;4.880;2022-09-03T00:07:39;18.60;99.90
17092;DHT22;8661;45.700;4.880;2022-09-03T00:10:14;18.60;99.90
17092;DHT22;8661;45.700;4.880;2022-09-03T00:12:43;18.50;99.90
17092;DHT22;8661;45.700;4.880;2022-09-03T00:15:13;18.50;99.90
17092;DHT22;8661;45.700;4.880;2022-09-03T00:17:43;18.50;99.90
17092;DHT22;8661;45.700;4.880;2022-09-03T00:20:16;18.40;99.90
17092;DHT22;8661;45.700;4.880;2022-09-03T00:22:46;18.40;99.90
17092;DHT22;8661;45.700;4.880;2022-09-03T00:25:18;18.40;99.90
17092;DHT22;8661;45.700;4.880;2022-09-03T00:27:52;18.30;99.90
17092;DHT22;8661;45.700;4.880;2022-09-03T00:30:20;18.40;99.90
17092;DHT22;8661;45.700;4.880;2022-09-03T00:32:51;18.40;99.90
17092;DHT22;8661;45.700;4.880;2022-09-03T00:35:24;18.30;99.90
17092;DHT22;8661;45.700;4.880;2022-09-03T00:37:53;18.30;99.90
17092;DHT22;8661;45.700;4.880;2022-09-03T00:40:44;18.30;99.90
17092;DHT22;8661;45.700;4.880;2022-09-03T00:43:20;18.30;99.90
17092;DHT22;8661;45.700;4.880;2022-09-03T00:45:56;18.20;99.90
17092;DHT22;8661;45.700;4.880;2022-09-03T00:48:30;18.20;99.90
17092;DHT22;8661;45.700;4.880;2022-09-03T00:51:08;18.20;99.90
17092;DHT22;8661;45.700;4.880;2022-09-03T00:53:42;18.20;99.90
17092;DHT22;8661;45.700;4.880;2022-09-03T00:56:19;18.20;99.90
17092;DHT22;8661;45.700;4.880;2022-09-03T00:58:58;18.20;99.90
17092;DHT22;8661;45.700;4.880;2022-09-03T01:01:45;18.10;99.90
17092;DHT22;8661;45.700;4.880;2022-09-03T01:04:34;18.10;99.90
17092;DHT22;8661;45.700;4.880;2022-09-03T01:07:11;18.10;99.90
17092;DHT22;8661;45.700;4.880;2022-09-03T01:09:49;18.10;99.90
17092;DHT22;8661;45.700;4.880;2022-09-03T01:12:28;18.10;99.90
17092;DHT22;8661;45.700;4.880;2022-09-03T01:15:04;18.00;99.90
17092;DHT22;8661;45.700;4.880;2022-09-03T01:17:45;18.00;99.90
17092;DHT22;8661;45.700;4.880;2022-09-03T01:20:26;18.00;99.90
17092;DHT22;8661;45.700;4.880;2022-09-03T01:26:15;17.90;99.90
17092;DHT22;8661;45.700;4.880;2022-09-03T01:28:58;18.00;99.90
17092;DHT22;8661;45.700;4.880;2022-09-03T01:31:36;18.00;99.90
17092;DHT22;8661;45.700;4.880;2022-09-03T01:34:12;18.00;99.90
17092;DHT22;8661;45.700;4.880;2022-09-03T01:36:49;18.00;99.90
17092;DHT22;8661;45.700;4.880;2022-09-03T01:39:23;17.90;99.90
17092;DHT22;8661;45.700;4.880;2022-09-03T01:42:03;17.90;99.90
17092;DHT22;8661;45.700;4.880;2022-09-03T01:45:07;17.90;99.90
17092;DHT22;8661;45.700;4.880;2022-09-03T01:47:50;17.90;99.90
17092;DHT22;8661;45.700;4.880;2022-09-03T01:50:28;17.90;99.90
17092;DHT22;8661;45.700;4.880;2022-09-03T01:53:06;17.90;99.90
17092;DHT22;8661;45.700;4.880;2022-09-03T01:55:44;17.80;99.90
17092;DHT22;8661;45.700;4.880;2022-09-03T01:58:15;17.80;99.90
17092;DHT22;8661;45.700;4.880;2022-09-03T02:00:50;17.80;99.90
17092;DHT22;8661;45.700;4.880;2022-09-03T02:03:22;17.80;99.90
17092;DHT22;8661;45.700;4.880;2022-09-03T02:05:49;17.80;99.90
17092;DHT22;8661;45.700;4.880;2022-09-03T02:08:18;17.80;99.90
17092;DHT22;8661;45.700;4.880;2022-09-03T02:10:48;17.80;99.90
17092;DHT22;8661;45.700;4.880;2022-09-03T02:13:19;17.80;99.90
17092;DHT22;8661;45.700;4.880;2022-09-03T02:15:51;17.80;99.90
17092;DHT22;8661;45.700;4.880;2022-09-03T02:18:20;17.80;99.90
17092;DHT22;8661;45.700;4.880;2022-09-03T02:20:48;17.80;99.90
17092;DHT22;8661;45.700;4.880;2022-09-03T02:23:15;17.80;99.90
17092;DHT22;8661;45.700;4.880;2022-09-03T02:25:46;17.80;99.90
17092;DHT22;8661;45.700;4.880;2022-09-03T02:28:14;17.80;99.90
17092;DHT22;8661;45.700;4.880;2022-09-03T02:30:41;17.80;99.90
17092;DHT22;8661;45.700;4.880;2022-09-03T02:33:09;17.80;99.90
17092;DHT22;8661;45.700;4.880;2022-09-03T02:35:37;17.80;99.90
17092;DHT22;8661;45.700;4.880;2022-09-03T02:38:14;17.80;99.90
17092;DHT22;8661;45.700;4.880;2022-09-03T02:40:41;17.90;99.90
17092;DHT22;8661;45.700;4.880;2022-09-03T02:43:13;17.90;99.90
17092;DHT22;8661;45.700;4.880;2022-09-03T02:45:44;17.90;99.90
17092;DHT22;8661;45.700;4.880;2022-09-03T02:48:16;18.00;99.90
17092;DHT22;8661;45.700;4.880;2022-09-03T02:50:46;18.00;99.90
17092;DHT22;8661;45.700;4.880;2022-09-03T02:53:13;18.00;99.90
17092;DHT22;8661;45.700;4.880;2022-09-03T02:55:40;18.00;99.90
17092;DHT22;8661;45.700;4.880;2022-09-03T02:58:07;18.00;99.90
17092;DHT22;8661;45.700;4.880;2022-09-03T03:00:34;18.00;99.90
17092;DHT22;8661;45.700;4.880;2022-09-03T03:03:01;18.10;99.90
17092;DHT22;8661;45.700;4.880;2022-09-03T03:05:39;18.10;99.90
17092;DHT22;8661;45.700;4.880;2022-09-03T03:08:07;18.10;99.90
17092;DHT22;8661;45.700;4.880;2022-09-03T03:10:34;18.20;99.90
17092;DHT22;8661;45.700;4.880;2022-09-03T03:13:02;18.20;99.90
17092;DHT22;8661;45.700;4.880;2022-09-03T03:15:29;18.20;99.90
17092;DHT22;8661;45.700;4.880;2022-09-03T03:17:56;18.20;99.90
17092;DHT22;8661;45.700;4.880;2022-09-03T03:20:23;18.20;99.90
17092;DHT22;8661;45.700;4.880;2022-09-03T03:22:51;18.20;99.90
17092;DHT22;8661;45.700;4.880;2022-09-03T03:25:18;18.20;99.90
17092;DHT22;8661;45.700;4.880;2022-09-03T03:27:45;18.10;99.90
17092;DHT22;8661;45.700;4.880;2022-09-03T03:30:12;18.10;99.90
17092;DHT22;8661;45.700;4.880;2022-09-03T03:32:39;18.10;99.90
17092;DHT22;8661;45.700;4.880;2022-09-03T03:35:07;18.10;99.90
17092;DHT22;8661;45.700;4.880;2022-09-03T03:37:33;18.10;99.90
17092;DHT22;8661;45.700;4.880;2022-09-03T03:40:03;18.10;99.90
17092;DHT22;8661;45.700;4.880;2022-09-03T03:42:32;18.00;99.90
17092;DHT22;8661;45.700;4.880;2022-09-03T03:44:59;18.00;99.90
17092;DHT22;8661;45.700;4.880;2022-09-03T03:47:27;18.00;99.90
17092;DHT22;8661;45.700;4.880;2022-09-03T03:49:55;18.00;99.90
17092;DHT22;8661;45.700;4.880;2022-09-03T03:52:22;17.90;99.90
17092;DHT22;8661;45.700;4.880;2022-09-03T03:54:49;17.90;99.90
17092;DHT22;8661;45.700;4.880;2022-09-03T03:57:20;17.90;99.90
17092;DHT22;8661;45.700;4.880;2022-09-03T03:59:47;17.80;99.90
17092;DHT22;8661;45.700;4.880;2022-09-03T04:02:15;17.80;99.90
17092;DHT22;8661;45.700;4.880;2022-09-03T04:04:42;17.80;99.90
17092;DHT22;8661;45.700;4.880;2022-09-03T04:07:09;17.80;99.90
17092;DHT22;8661;45.700;4.880;2022-09-03T04:09:36;17.80;99.90
17092;DHT22;8661;45.700;4.880;2022-09-03T04:12:03;17.70;99.90
17092;DHT22;8661;45.700;4.880;2022-09-03T04:14:34;17.70;99.90
17092;DHT22;8661;45.700;4.880;2022-09-03T04:17:01;17.70;99.90
17092;DHT22;8661;45.700;4.880;2022-09-03T04:19:28;17.60;99.90
17092;DHT22;8661;45.700;4.880;2022-09-03T04:21:55;17.60;99.90
17092;DHT22;8661;45.700;4.880;2022-09-03T04:24:22;17.50;99.90
17092;DHT22;8661;45.700;4.880;2022-09-03T04:26:49;17.50;99.90
17092;DHT22;8661;45.700;4.880;2022-09-03T04:29:18;17.50;99.90
17092;DHT22;8661;45.700;4.880;2022-09-03T04:31:47;17.50;99.90
17092;DHT22;8661;45.700;4.880;2022-09-03T04:34:28;17.40;99.90
17092;DHT22;8661;45.700;4.880;2022-09-03T04:36:55;17.40;99.90
17092;DHT22;8661;45.700;4.880;2022-09-03T04:39:23;17.40;99.90
17092;DHT22;8661;45.700;4.880;2022-09-03T04:41:50;17.40;99.90
17092;DHT22;8661;45.700;4.880;2022-09-03T04:44:17;17.40;99.90
17092;DHT22;8661;45.700;4.880;2022-09-03T04:46:44;17.30;99.90
17092;DHT22;8661;45.700;4.880;2022-09-03T04:49:13;17.30;99.90
17092;DHT22;8661;45.700;4.880;2022-09-03T04:51:40;17.30;99.90
17092;DHT22;8661;45.700;4.880;2022-09-03T04:54:09;17.30;99.90
17092;DHT22;8661;45.700;4.880;2022-09-03T04:56:38;17.30;99.90
17092;DHT22;8661;45.700;4.880;2022-09-03T04:59:06;17.30;99.90
17092;DHT22;8661;45.700;4.880;2022-09-03T05:01:35;17.30;99.90
17092;DHT22;8661;45.700;4.880;2022-09-03T05:04:03;17.30;99.90
17092;DHT22;8661;45.700;4.880;2022-09-03T05:06:32;17.30;99.90
17092;DHT22;8661;45.700;4.880;2022-09-03T05:09:00;17.30;99.90
17092;DHT22;8661;45.700;4.880;2022-09-03T05:11:28;17.30;99.90
17092;DHT22;8661;45.700;4.880;2022-09-03T05:13:56;17.30;99.90
17092;DHT22;8661;45.700;4.880;2022-09-03T05:16:24;17.30;99.90
17092;DHT22;8661;45.700;4.880;2022-09-03T05:18:53;17.30;99.90
17092;DHT22;8661;45.700;4.880;2022-09-03T05:21:21;17.30;99.90
17092;DHT22;8661;45.700;4.880;2022-09-03T05:23:50;17.30;99.90
17092;DHT22;8661;45.700;4.880;2022-09-03T05:26:19;17.30;99.90
17092;DHT22;8661;45.700;4.880;2022-09-03T05:28:46;17.30;99.90
17092;DHT22;8661;45.700;4.880;2022-09-03T05:31:14;17.40;99.90
17092;DHT22;8661;45.700;4.880;2022-09-03T05:33:43;17.40;99.90
17092;DHT22;8661;45.700;4.880;2022-09-03T05:36:12;17.40;99.90
17092;DHT22;8661;45.700;4.880;2022-09-03T05:38:40;17.40;99.90
17092;DHT22;8661;45.700;4.880;2022-09-03T05:41:10;17.40;99.90
17092;DHT22;8661;45.700;4.880;2022-09-03T05:43:38;17.40;99.90
17092;DHT22;8661;45.700;4.880;2022-09-03T05:46:06;17.40;99.90
17092;DHT22;8661;45.700;4.880;2022-09-03T05:48:34;17.50;99.90
17092;DHT22;8661;45.700;4.880;2022-09-03T05:51:04;17.60;99.90
17092;DHT22;8661;45.700;4.880;2022-09-03T05:53:34;17.60;99.90
17092;DHT22;8661;45.700;4.880;2022-09-03T05:56:04;18.30;99.90
17092;DHT22;8661;45.700;4.880;2022-09-03T05:58:34;18.80;99.90
17092;DHT22;8661;45.700;4.880;2022-09-03T06:01:09;18.80;99.90
17092;DHT22;8661;45.700;4.880;2022-09-03T06:03:36;19.50;99.90
17092;DHT22;8661;45.700;4.880;2022-09-03T06:06:03;20.10;99.90
17092;DHT22;8661;45.700;4.880;2022-09-03T06:08:31;20.50;99.90
17092;DHT22;8661;45.700;4.880;2022-09-03T06:10:58;20.70;99.90
17092;DHT22;8661;45.700;4.880;2022-09-03T06:13:25;20.60;99.90
17092;DHT22;8661;45.700;4.880;2022-09-03T06:15:57;20.30;99.90
17092;DHT22;8661;45.700;4.880;2022-09-03T06:18:25;20.00;99.90
17092;DHT22;8661;45.700;4.880;2022-09-03T06:20:55;19.90;99.90
17092;DHT22;8661;45.700;4.880;2022-09-03T06:23:24;19.70;99.90
17092;DHT22;8661;45.700;4.880;2022-09-03T06:25:59;19.60;99.90
17092;DHT22;8661;45.700;4.880;2022-09-03T06:28:26;19.50;99.90
17092;DHT22;8661;45.700;4.880;2022-09-03T06:30:58;19.40;99.90
17092;DHT22;8661;45.700;4.880;2022-09-03T06:33:27;19.30;99.90
17092;DHT22;8661;45.700;4.880;2022-09-03T06:35:55;19.30;99.90
17092;DHT22;8661;45.700;4.880;2022-09-03T06:38:24;19.30;99.90
17092;DHT22;8661;45.700;4.880;2022-09-03T06:40:53;19.20;99.90
17092;DHT22;8661;45.700;4.880;2022-09-03T06:43:21;19.30;99.90
17092;DHT22;8661;45.700;4.880;2022-09-03T06:45:55;19.30;99.90
17092;DHT22;8661;45.700;4.880;2022-09-03T06:48:23;19.40;99.90
17092;DHT22;8661;45.700;4.880;2022-09-03T06:50:55;19.40;99.90
17092;DHT22;8661;45.700;4.880;2022-09-03T06:53:24;19.50;99.90
17092;DHT22;8661;45.700;4.880;2022-09-03T06:55:55;19.80;99.90
17092;DHT22;8661;45.700;4.880;2022-09-03T06:58:23;20.30;99.90
17092;DHT22;8661;45.700;4.880;2022-09-03T07:00:50;20.50;99.90
17092;DHT22;8661;45.700;4.880;2022-09-03T07:03:19;20.60;99.90
17092;DHT22;8661;45.700;4.880;2022-09-03T07:05:47;20.60;99.90
17092;DHT22;8661;45.700;4.880;2022-09-03T07:08:14;20.60;99.90
17092;DHT22;8661;45.700;4.880;2022-09-03T07:10:45;20.60;99.90
17092;DHT22;8661;45.700;4.880;2022-09-03T07:13:13;20.60;99.90
17092;DHT22;8661;45.700;4.880;2022-09-03T07:15:40;20.70;99.90
17092;DHT22;8661;45.700;4.880;2022-09-03T07:18:07;20.80;99.90
17092;DHT22;8661;45.700;4.880;2022-09-03T07:20:34;20.90;99.90
17092;DHT22;8661;45.700;4.880;2022-09-03T07:23:03;20.80;99.90
17092;DHT22;8661;45.700;4.880;2022-09-03T07:25:30;20.90;99.90
17092;DHT22;8661;45.700;4.880;2022-09-03T07:27:57;21.20;99.90
17092;DHT22;8661;45.700;4.880;2022-09-03T07:30:24;21.70;99.90
17092;DHT22;8661;45.700;4.880;2022-09-03T07:32:52;22.40;99.90
17092;DHT22;8661;45.700;4.880;2022-09-03T07:35:19;23.00;99.90
17092;DHT22;8661;45.700;4.880;2022-09-03T07:37:50;23.20;99.90
17092;DHT22;8661;45.700;4.880;2022-09-03T07:40:18;23.50;99.90
17092;DHT22;8661;45.700;4.880;2022-09-03T07:42:45;23.50;99.90
17092;DHT22;8661;45.700;4.880;2022-09-03T07:45:13;23.30;99.90
17092;DHT22;8661;45.700;4.880;2022-09-03T07:47:45;23.10;99.90
17092;DHT22;8661;45.700;4.880;2022-09-03T07:50:13;23.00;99.90
17092;DHT22;8661;45.700;4.880;2022-09-03T07:52:40;23.50;99.90
17092;DHT22;8661;45.700;4.880;2022-09-03T07:55:08;24.10;99.90
17092;DHT22;8661;45.700;4.880;2022-09-03T07:57:37;24.60;99.90
17092;DHT22;8661;45.700;4.880;2022-09-03T08:00:05;25.30;99.90
17092;DHT22;8661;45.700;4.880;2022-09-03T08:02:33;26.20;99.90
17092;DHT22;8661;45.700;4.880;2022-09-03T08:04:59;26.50;99.90
17092;DHT22;8661;45.700;4.880;2022-09-03T08:07:28;26.80;99.90
17092;DHT22;8661;45.700;4.880;2022-09-03T08:09:55;26.90;99.90
17092;DHT22;8661;45.700;4.880;2022-09-03T08:12:22;26.90;99.90
17092;DHT22;8661;45.700;4.880;2022-09-03T08:14:50;27.20;99.90
17092;DHT22;8661;45.700;4.880;2022-09-03T08:17:17;27.70;99.90
17092;DHT22;8661;45.700;4.880;2022-09-03T08:19:44;28.30;99.90
17092;DHT22;8661;45.700;4.880;2022-09-03T08:22:12;29.10;99.90
17092;DHT22;8661;45.700;4.880;2022-09-03T08:24:39;29.60;99.90
17092;DHT22;8661;45.700;4.880;2022-09-03T08:27:07;30.00;99.90
17092;DHT22;8661;45.700;4.880;2022-09-03T08:29:34;29.70;99.90
17092;DHT22;8661;45.700;4.880;2022-09-03T08:32:04;29.00;99.90
17092;DHT22;8661;45.700;4.880;2022-09-03T08:34:31;28.50;99.90
17092;DHT22;8661;45.700;4.880;2022-09-03T08:36:58;28.10;99.90
17092;DHT22;8661;45.700;4.880;2022-09-03T08:39:26;27.80;99.90
17092;DHT22;8661;45.700;4.880;2022-09-03T08:44:53;27.40;99.90
17092;DHT22;8661;45.700;4.880;2022-09-03T08:47:26;27.30;99.90
17092;DHT22;8661;45.700;4.880;2022-09-03T08:49:57;27.10;99.90
17092;DHT22;8661;45.700;4.880;2022-09-03T08:52:29;27.00;99.90
17092;DHT22;8661;45.700;4.880;2022-09-03T08:55:03;26.70;99.90
17092;DHT22;8661;45.700;4.880;2022-09-03T08:57:40;26.40;99.90
17092;DHT22;8661;45.700;4.880;2022-09-03T09:00:10;26.20;99.90
17092;DHT22;8661;45.700;4.880;2022-09-03T09:02:53;25.90;99.90
17092;DHT22;8661;45.700;4.880;2022-09-03T09:05:27;26.00;99.90
17092;DHT22;8661;45.700;4.880;2022-09-03T09:08:01;26.10;99.90
17092;DHT22;8661;45.700;4.880;2022-09-03T09:10:36;26.40;99.90
17092;DHT22;8661;45.700;4.880;2022-09-03T09:13:17;26.90;99.90
17092;DHT22;8661;45.700;4.880;2022-09-03T09:15:51;27.70;99.90
17092;DHT22;8661;45.700;4.880;2022-09-03T09:18:28;28.20;99.90
17092;DHT22;8661;45.700;4.880;2022-09-03T09:21:06;28.20;98.70
17092;DHT22;8661;45.700;4.880;2022-09-03T09:23:37;28.80;98.00
17092;DHT22;8661;45.700;4.880;2022-09-03T09:26:09;29.30;96.60
17092;DHT22;8661;45.700;4.880;2022-09-03T09:28:38;29.90;93.80
17092;DHT22;8661;45.700;4.880;2022-09-03T09:31:06;30.20;94.10
17092;DHT22;8661;45.700;4.880;2022-09-03T09:33:38;31.30;92.00
17092;DHT22;8661;45.700;4.880;2022-09-03T09:36:07;32.30;88.50
17092;DHT22;8661;45.700;4.880;2022-09-03T09:38:38;33.10;84.40
17092;DHT22;8661;45.700;4.880;2022-09-03T09:41:09;33.20;81.60
17092;DHT22;8661;45.700;4.880;2022-09-03T09:43:37;33.50;79.20
17092;DHT22;8661;45.700;4.880;2022-09-03T09:46:12;34.00;79.00
17092;DHT22;8661;45.700;4.880;2022-09-03T09:48:46;34.40;77.70
17092;DHT22;8661;45.700;4.880;2022-09-03T09:51:19;34.50;73.40
17092;DHT22;8661;45.700;4.880;2022-09-03T09:53:46;35.10;71.40
17092;DHT22;8661;45.700;4.880;2022-09-03T09:56:20;35.70;69.80
17092;DHT22;8661;45.700;4.880;2022-09-03T09:58:48;36.20;68.60
17092;DHT22;8661;45.700;4.880;2022-09-03T10:01:21;35.80;66.40
17092;DHT22;8661;45.700;4.880;2022-09-03T10:03:52;35.60;67.80
17092;DHT22;8661;45.700;4.880;2022-09-03T10:06:22;35.80;66.90
17092;DHT22;8661;45.700;4.880;2022-09-03T10:09:09;35.70;66.90
17092;DHT22;8661;45.700;4.880;2022-09-03T10:11:38;35.60;67.70
17092;DHT22;8661;45.700;4.880;2022-09-03T10:14:12;35.30;67.50
17092;DHT22;8661;45.700;4.880;2022-09-03T10:16:44;35.20;67.70
17092;DHT22;8661;45.700;4.880;2022-09-03T10:19:18;34.90;66.50
17092;DHT22;8661;45.700;4.880;2022-09-03T10:21:52;34.80;67.10
17092;DHT22;8661;45.700;4.880;2022-09-03T10:24:29;34.30;67.10
17092;DHT22;8661;45.700;4.880;2022-09-03T10:26:59;33.50;70.60
17092;DHT22;8661;45.700;4.880;2022-09-03T10:29:26;33.00;71.20
17092;DHT22;8661;45.700;4.880;2022-09-03T10:32:05;32.60;72.70
17092;DHT22;8661;45.700;4.880;2022-09-03T10:34:43;32.10;72.50
17092;DHT22;8661;45.700;4.880;2022-09-03T10:37:20;31.70;73.80
17092;DHT22;8661;45.700;4.880;2022-09-03T10:39:59;31.70;74.60
17092;DHT22;8661;45.700;4.880;2022-09-03T10:42:36;31.50;75.50
17092;DHT22;8661;45.700;4.880;2022-09-03T10:45:17;32.00;74.80
17092;DHT22;8661;45.700;4.880;2022-09-03T10:50:50;31.80;73.20
17092;DHT22;8661;45.700;4.880;2022-09-03T10:53:33;32.10;75.30
17092;DHT22;8661;45.700;4.880;2022-09-03T10:56:05;33.20;73.90
17092;DHT22;8661;45.700;4.880;2022-09-03T10:58:47;32.70;73.40
17092;DHT22;8661;45.700;4.880;2022-09-03T11:01:24;32.50;72.10
17092;DHT22;8661;45.700;4.880;2022-09-03T11:04:04;32.70;71.70
17092;DHT22;8661;45.700;4.880;2022-09-03T11:06:42;33.40;71.40
17092;DHT22;8661;45.700;4.880;2022-09-03T11:09:16;34.10;67.80
17092;DHT22;8661;45.700;4.880;2022-09-03T11:11:48;34.40;66.70
17092;DHT22;8661;45.700;4.880;2022-09-03T11:14:27;34.40;65.50
17092;DHT22;8661;45.700;4.880;2022-09-03T11:17:00;34.90;66.30
17092;DHT22;8661;45.700;4.880;2022-09-03T11:19:34;35.50;64.40
17092;DHT22;8661;45.700;4.880;2022-09-03T11:22:05;35.50;62.00
17092;DHT22;8661;45.700;4.880;2022-09-03T11:24:34;35.50;63.00
17092;DHT22;8661;45.700;4.880;2022-09-03T11:27:18;35.60;62.80
17092;DHT22;8661;45.700;4.880;2022-09-03T11:29:50;36.00;60.10
17092;DHT22;8661;45.700;4.880;2022-09-03T11:32:23;35.60;61.20
17092;DHT22;8661;45.700;4.880;2022-09-03T11:34:52;36.10;61.40
17092;DHT22;8661;45.700;4.880;2022-09-03T11:37:23;36.10;61.60
17092;DHT22;8661;45.700;4.880;2022-09-03T11:39:56;36.70;61.70
17092;DHT22;8661;45.700;4.880;2022-09-03T11:42:34;37.10;59.10
17092;DHT22;8661;45.700;4.880;2022-09-03T11:45:33;37.10;58.80
17092;DHT22;8661;45.700;4.880;2022-09-03T11:48:00;36.50;58.20
17092;DHT22;8661;45.700;4.880;2022-09-03T11:50:29;36.70;59.60
17092;DHT22;8661;45.700;4.880;2022-09-03T11:53:09;36.50;59.10
17092;DHT22;8661;45.700;4.880;2022-09-03T11:55:51;36.40;58.90
17092;DHT22;8661;45.700;4.880;2022-09-03T11:58:23;36.40;58.60
17092;DHT22;8661;45.700;4.880;2022-09-03T12:00:51;35.80;59.40
17092;DHT22;8661;45.700;4.880;2022-09-03T12:03:23;35.20;60.60
17092;DHT22;8661;45.700;4.880;2022-09-03T12:06:06;34.90;60.90
17092;DHT22;8661;45.700;4.880;2022-09-03T12:08:54;34.50;60.90
17092;DHT22;8661;45.700;4.880;2022-09-03T12:11:37;33.80;63.50
17092;DHT22;8661;45.700;4.880;2022-09-03T12:14:12;33.90;65.30
17092;DHT22;8661;45.700;4.880;2022-09-03T12:16:59;34.60;63.30
17092;DHT22;8661;45.700;4.880;2022-09-03T12:19:36;35.30;59.40
17092;DHT22;8661;45.700;4.880;2022-09-03T12:22:04;35.80;60.70
17092;DHT22;8661;45.700;4.880;2022-09-03T12:24:32;36.60;59.60
17092;DHT22;8661;45.700;4.880;2022-09-03T12:27:00;37.00;58.20
17092;DHT22;8661;45.700;4.880;2022-09-03T12:29:29;37.30;57.90
17092;DHT22;8661;45.700;4.880;2022-09-03T12:32:05;36.80;57.40
17092;DHT22;8661;45.700;4.880;2022-09-03T12:34:32;36.90;56.70
17092;DHT22;8661;45.700;4.880;2022-09-03T12:36:59;37.20;57.10
17092;DHT22;8661;45.700;4.880;2022-09-03T12:39:27;37.50;56.60
17092;DHT22;8661;45.700;4.880;2022-09-03T12:42:01;37.70;57.20
17092;DHT22;8661;45.700;4.880;2022-09-03T12:44:31;37.70;54.70
17092;DHT22;8661;45.700;4.880;2022-09-03T12:47:04;37.40;56.10
17092;DHT22;8661;45.700;4.880;2022-09-03T12:49:35;37.10;56.50
17092;DHT22;8661;45.700;4.880;2022-09-03T12:52:08;37.00;56.10
17092;DHT22;8661;45.700;4.880;2022-09-03T12:54:41;37.10;55.80
17092;DHT22;8661;45.700;4.880;2022-09-03T12:57:15;36.90;55.80
17092;DHT22;8661;45.700;4.880;2022-09-03T12:59:47;36.90;55.90
17092;DHT22;8661;45.700;4.880;2022-09-03T13:02:18;36.90;55.80
17092;DHT22;8661;45.700;4.880;2022-09-03T13:04:46;36.80;55.30
17092;DHT22;8661;45.700;4.880;2022-09-03T13:07:21;36.20;55.80
17092;DHT22;8661;45.700;4.880;2022-09-03T13:09:49;35.50;56.50
17092;DHT22;8661;45.700;4.880;2022-09-03T13:12:29;35.00;57.30
17092;DHT22;8661;45.700;4.880;2022-09-03T13:14:56;34.80;58.20
17092;DHT22;8661;45.700;4.880;2022-09-03T13:17:36;34.20;59.20
17092;DHT22;8661;45.700;4.880;2022-09-03T13:20:23;33.70;60.30
17092;DHT22;8661;45.700;4.880;2022-09-03T13:23:13;33.90;60.60
17092;DHT22;8661;45.700;4.880;2022-09-03T13:25:51;33.60;61.50
17092;DHT22;8661;45.700;4.880;2022-09-03T13:28:32;33.20;63.40
17092;DHT22;8661;45.700;4.880;2022-09-03T13:31:09;33.10;63.60
17092;DHT22;8661;45.700;4.880;2022-09-03T13:33:48;32.90;65.20
17092;DHT22;8661;45.700;4.880;2022-09-03T13:36:19;33.00;66.70
17092;DHT22;8661;45.700;4.880;2022-09-03T13:38:51;32.60;67.00
17092;DHT22;8661;45.700;4.880;2022-09-03T13:41:28;32.00;67.60
17092;DHT22;8661;45.700;4.880;2022-09-03T13:44:05;31.40;68.10
17092;DHT22;8661;45.700;4.880;2022-09-03T13:46:40;30.90;68.50
17092;DHT22;8661;45.700;4.880;2022-09-03T13:49:19;30.30;69.20
17092;DHT22;8661;45.700;4.880;2022-09-03T13:52:12;29.80;70.50
17092;DHT22;8661;45.700;4.880;2022-09-03T13:54:51;29.70;72.70
17092;DHT22;8661;45.700;4.880;2022-09-03T13:57:25;29.40;75.80
17092;DHT22;8661;45.700;4.880;2022-09-03T14:00:00;29.10;77.40
17092;DHT22;8661;45.700;4.880;2022-09-03T14:02:35;28.60;77.60
17092;DHT22;8661;45.700;4.880;2022-09-03T14:05:08;28.20;79.10
17092;DHT22;8661;45.700;4.880;2022-09-03T14:08:03;27.70;80.30
17092;DHT22;8661;45.700;4.880;2022-09-03T14:10:43;27.40;80.70
17092;DHT22;8661;45.700;4.880;2022-09-03T14:13:23;26.80;84.40
17092;DHT22;8661;45.700;4.880;2022-09-03T14:16:02;25.70;90.00
17092;DHT22;8661;45.700;4.880;2022-09-03T14:18:37;25.10;92.50
17092;DHT22;8661;45.700;4.880;2022-09-03T14:21:08;24.40;94.10
17092;DHT22;8661;45.700;4.880;2022-09-03T14:23:43;23.90;97.00
17092;DHT22;8661;45.700;4.880;2022-09-03T14:26:17;23.60;99.90
17092;DHT22;8661;45.700;4.880;2022-09-03T14:28:47;23.40;99.90
17092;DHT22;8661;45.700;4.880;2022-09-03T14:31:22;23.20;99.90
17092;DHT22;8661;45.700;4.880;2022-09-03T14:33:57;23.20;99.90
17092;DHT22;8661;45.700;4.880;2022-09-03T14:36:30;23.00;99.90
17092;DHT22;8661;45.700;4.880;2022-09-03T14:39:18;22.90;99.90
17092;DHT22;8661;45.700;4.880;2022-09-03T14:42:00;23.00;99.90
17092;DHT22;8661;45.700;4.880;2022-09-03T14:44:44;22.80;99.90
17092;DHT22;8661;45.700;4.880;2022-09-03T14:47:28;22.70;99.90
17092;DHT22;8661;45.700;4.880;2022-09-03T14:50:22;23.40;99.90
17092;DHT22;8661;45.700;4.880;2022-09-03T14:53:24;24.00;99.90
17092;DHT22;8661;45.700;4.880;2022-09-03T14:56:16;24.20;99.90
17092;DHT22;8661;45.700;4.880;2022-09-03T14:58:59;24.00;99.90
17092;DHT22;8661;45.700;4.880;2022-09-03T15:01:31;24.50;99.90
17092;DHT22;8661;45.700;4.880;2022-09-03T15:04:26;25.30;99.90
17092;DHT22;8661;45.700;4.880;2022-09-03T15:07:13;25.00;99.90
17092;DHT22;8661;45.700;4.880;2022-09-03T15:09:49;24.40;99.90
17092;DHT22;8661;45.700;4.880;2022-09-03T15:12:22;24.10;99.90
17092;DHT22;8661;45.700;4.880;2022-09-03T15:14:53;23.90;99.90
17092;DHT22;8661;45.700;4.880;2022-09-03T15:17:45;23.70;99.90
17092;DHT22;8661;45.700;4.880;2022-09-03T15:20:20;23.60;99.90
17092;DHT22;8661;45.700;4.880;2022-09-03T15:23:22;23.40;99.90
17092;DHT22;8661;45.700;4.880;2022-09-03T15:26:09;23.40;99.90
17092;DHT22;8661;45.700;4.880;2022-09-03T15:28:52;23.10;99.90
17092;DHT22;8661;45.700;4.880;2022-09-03T15:31:28;23.00;99.90
17092;DHT22;8661;45.700;4.880;2022-09-03T15:34:11;23.00;99.90
17092;DHT22;8661;45.700;4.880;2022-09-03T15:36:43;23.00;99.90
17092;DHT22;8661;45.700;4.880;2022-09-03T15:39:19;23.00;99.90
17092;DHT22;8661;45.700;4.880;2022-09-03T15:41:51;23.00;99.90
17092;DHT22;8661;45.700;4.880;2022-09-03T15:44:21;23.00;99.90
17092;DHT22;8661;45.700;4.880;2022-09-03T15:46:56;23.10;99.90
17092;DHT22;8661;45.700;4.880;2022-09-03T15:49:31;23.20;99.90
17092;DHT22;8661;45.700;4.880;2022-09-03T15:52:08;23.10;99.90
17092;DHT22;8661;45.700;4.880;2022-09-03T15:54:41;22.90;99.90
17092;DHT22;8661;45.700;4.880;2022-09-03T15:57:12;22.80;99.90
17092;DHT22;8661;45.700;4.880;2022-09-03T15:59:50;22.80;99.90
17092;DHT22;8661;45.700;4.880;2022-09-03T16:02:19;22.60;99.90
17092;DHT22;8661;45.700;4.880;2022-09-03T16:05:01;22.50;99.90
17092;DHT22;8661;45.700;4.880;2022-09-03T16:07:49;22.50;99.90
17092;DHT22;8661;45.700;4.880;2022-09-03T16:10:20;22.50;99.90
17092;DHT22;8661;45.700;4.880;2022-09-03T16:12:58;22.60;99.90
17092;DHT22;8661;45.700;4.880;2022-09-03T16:15:29;22.50;99.90
17092;DHT22;8661;45.700;4.880;2022-09-03T16:18:02;22.50;99.90
17092;DHT22;8661;45.700;4.880;2022-09-03T16:20:35;22.50;99.90
17092;DHT22;8661;45.700;4.880;2022-09-03T16:23:10;22.70;99.90
17092;DHT22;8661;45.700;4.880;2022-09-03T16:25:47;22.80;99.90
17092;DHT22;8661;45.700;4.880;2022-09-03T16:28:18;22.90;99.90
17092;DHT22;8661;45.700;4.880;2022-09-03T16:30:55;23.10;99.90